Hovedside
METAR-TAF:

METAR-TAF

Lufthavner :

Ouagadougou lufthavn

Ouagadougou, Burkina Faso

breddegrad: 12-21N, lengdegrad: 001-31W, høyde over havet: 316 m

Gjeldene værobservasjon

Denne rapporten ble laget for 1 time og 4 minutter siden, klokken 15:00 UTC
Vind 4 kt fra Vest
Temperatur 36°C
Luftfuktighet 42%
Trykk 1010 hPa
Sikt 10 km eller mer
ingen skyer under 1500 m og ingen bygeskyer

METAR: DFFD 191500Z 26004KT CAVOK 36/21 Q1010 NOSIG

Tid: 16:04 (16:04 UTC)

Varsel

Denne rapporten ble laget for 5 timer og 4 minutter siden, klokken 11:00 UTC
Varsel gyldig fra 19. klokken 12 UTC til 20. klokken 18 UTC
Vind 10 kt fra Vest-sørvest
Sikt 10 km eller mer
ingen skyer under 1500 m og ingen bygeskyer
Sannsynlighet 30% :
Midlertidig
fra 19. klokken 16 UTC til 19. klokken 22 UTC
Sikt: 4000 m
Spredte skyer i en høyde av 2600 ft
Spredte skyer i en høyde av 3600 ft, Bygeskyer.
torden, regn

TAF: DFFD 191100Z 1912/2018 24010KT CAVOK PROB30 TEMPO 1916/1922 4000 TSRA SCT026 SCT036CB

Værobservasjoner og værvarsel for over 4000 flyplasser (METAR- og TAF-rapporter).

Tilgjengelige stasjoner er representert av de røde og gule prikkene på kartet.

Hold musepekeren over prikken for å se navnet på stasjonen.

Klikk så for å se værobservasjoner og -varsler.

For å forandre kartet kan du klikke på den grønne knappen med svart kryss for å zoome inn, på den grønne knappen med strek for å zoome ut, eller på de grønne pilene for å se tilstøtende kart.


METAR-TAF: